sensor_id;sensor_type;location;lat;lon;timestamp;temperature;humidity
16838;DHT22;19510;54.486;9.046;2023-04-25T05:16:33;6.70;99.90
16838;DHT22;19510;54.486;9.046;2023-04-25T05:18:59;6.80;99.90
16838;DHT22;19510;54.486;9.046;2023-04-25T05:24:46;6.90;99.90
16838;DHT22;19510;54.486;9.046;2023-04-25T05:27:13;7.10;99.90
16838;DHT22;19510;54.486;9.046;2023-04-25T05:29:39;7.10;99.90
16838;DHT22;19510;54.486;9.046;2023-04-25T05:32:05;7.10;99.90
16838;DHT22;19510;54.486;9.046;2023-04-25T05:34:31;7.20;99.90
16838;DHT22;19510;54.486;9.046;2023-04-25T05:36:57;7.20;99.90
16838;DHT22;19510;54.486;9.046;2023-04-25T05:39:22;7.10;99.90
16838;DHT22;19510;54.486;9.046;2023-04-25T05:41:50;7.10;99.90
16838;DHT22;19510;54.486;9.046;2023-04-25T05:44:33;7.00;99.90
16838;DHT22;19510;54.486;9.046;2023-04-25T05:46:59;7.10;99.90
16838;DHT22;19510;54.486;9.046;2023-04-25T05:49:24;7.10;99.90
16838;DHT22;19510;54.486;9.046;2023-04-25T05:51:50;7.10;99.90
16838;DHT22;19510;54.486;9.046;2023-04-25T05:54:16;7.10;99.90
16838;DHT22;19510;54.486;9.046;2023-04-25T05:56:42;7.10;99.90
16838;DHT22;19510;54.486;9.046;2023-04-25T05:59:09;7.10;99.90
16838;DHT22;19510;54.486;9.046;2023-04-25T06:01:37;7.20;99.90
16838;DHT22;19510;54.486;9.046;2023-04-25T06:04:03;7.20;99.90
16838;DHT22;19510;54.486;9.046;2023-04-25T06:06:29;7.30;99.90
16838;DHT22;19510;54.486;9.046;2023-04-25T06:08:55;7.30;99.90
16838;DHT22;19510;54.486;9.046;2023-04-25T06:11:21;7.30;99.90
16838;DHT22;19510;54.486;9.046;2023-04-25T06:13:47;7.30;99.90
16838;DHT22;19510;54.486;9.046;2023-04-25T06:16:12;7.30;99.90
16838;DHT22;19510;54.486;9.046;2023-04-25T06:18:38;7.30;99.90
16838;DHT22;19510;54.486;9.046;2023-04-25T06:21:04;7.40;99.90
16838;DHT22;19510;54.486;9.046;2023-04-25T06:23:30;7.40;99.90
16838;DHT22;19510;54.486;9.046;2023-04-25T06:25:55;7.50;99.90
16838;DHT22;19510;54.486;9.046;2023-04-25T06:28:21;7.50;99.90
16838;DHT22;19510;54.486;9.046;2023-04-25T06:30:50;7.50;99.90
16838;DHT22;19510;54.486;9.046;2023-04-25T06:33:16;7.50;99.90
16838;DHT22;19510;54.486;9.046;2023-04-25T06:35:41;7.60;99.90
16838;DHT22;19510;54.486;9.046;2023-04-25T06:38:07;7.60;99.90
16838;DHT22;19510;54.486;9.046;2023-04-25T06:40:34;7.70;99.90
16838;DHT22;19510;54.486;9.046;2023-04-25T06:43:00;7.80;99.90
16838;DHT22;19510;54.486;9.046;2023-04-25T06:45:26;7.90;99.90
16838;DHT22;19510;54.486;9.046;2023-04-25T06:47:52;8.00;99.90
16838;DHT22;19510;54.486;9.046;2023-04-25T06:50:17;8.20;99.90
16838;DHT22;19510;54.486;9.046;2023-04-25T06:52:43;8.30;99.90
16838;DHT22;19510;54.486;9.046;2023-04-25T06:55:09;8.40;99.90
16838;DHT22;19510;54.486;9.046;2023-04-25T06:57:35;8.30;99.90
16838;DHT22;19510;54.486;9.046;2023-04-25T07:00:01;8.20;99.90
16838;DHT22;19510;54.486;9.046;2023-04-25T07:02:27;8.10;99.90
16838;DHT22;19510;54.486;9.046;2023-04-25T07:04:52;8.00;99.90
16838;DHT22;19510;54.486;9.046;2023-04-25T07:07:18;8.00;99.90
16838;DHT22;19510;54.486;9.046;2023-04-25T07:09:44;7.90;99.90
16838;DHT22;19510;54.486;9.046;2023-04-25T07:12:10;7.90;99.90
16838;DHT22;19510;54.486;9.046;2023-04-25T07:14:35;7.80;99.90
16838;DHT22;19510;54.486;9.046;2023-04-25T07:17:01;7.80;99.90
16838;DHT22;19510;54.486;9.046;2023-04-25T07:19:27;7.60;99.90
16838;DHT22;19510;54.486;9.046;2023-04-25T07:21:56;7.30;99.90
16838;DHT22;19510;54.486;9.046;2023-04-25T07:24:24;7.20;99.90
16838;DHT22;19510;54.486;9.046;2023-04-25T07:26:49;7.10;99.90
16838;DHT22;19510;54.486;9.046;2023-04-25T07:29:15;7.00;99.90
16838;DHT22;19510;54.486;9.046;2023-04-25T07:31:41;7.00;99.90
16838;DHT22;19510;54.486;9.046;2023-04-25T07:34:07;7.20;99.90
16838;DHT22;19510;54.486;9.046;2023-04-25T07:36:32;7.30;99.90
16838;DHT22;19510;54.486;9.046;2023-04-25T07:38:58;7.40;99.90
16838;DHT22;19510;54.486;9.046;2023-04-25T07:41:24;7.40;99.90
16838;DHT22;19510;54.486;9.046;2023-04-25T07:43:49;7.30;99.90
16838;DHT22;19510;54.486;9.046;2023-04-25T07:46:15;7.20;99.90
16838;DHT22;19510;54.486;9.046;2023-04-25T07:48:43;7.20;99.90
16838;DHT22;19510;54.486;9.046;2023-04-25T07:51:09;7.20;99.90
16838;DHT22;19510;54.486;9.046;2023-04-25T07:53:34;7.30;99.90
16838;DHT22;19510;54.486;9.046;2023-04-25T07:56:02;7.30;99.90
16838;DHT22;19510;54.486;9.046;2023-04-25T07:58:28;7.50;99.90
16838;DHT22;19510;54.486;9.046;2023-04-25T08:00:56;7.70;99.90
16838;DHT22;19510;54.486;9.046;2023-04-25T08:03:22;7.80;99.90
16838;DHT22;19510;54.486;9.046;2023-04-25T08:05:50;7.90;99.90
16838;DHT22;19510;54.486;9.046;2023-04-25T08:08:15;7.90;99.90
16838;DHT22;19510;54.486;9.046;2023-04-25T08:10:41;8.00;99.90
16838;DHT22;19510;54.486;9.046;2023-04-25T08:13:09;8.00;99.90
16838;DHT22;19510;54.486;9.046;2023-04-25T08:15:35;8.10;99.90
16838;DHT22;19510;54.486;9.046;2023-04-25T08:18:01;8.10;99.90
16838;DHT22;19510;54.486;9.046;2023-04-25T08:20:26;8.10;99.90
16838;DHT22;19510;54.486;9.046;2023-04-25T08:22:52;8.10;99.90
16838;DHT22;19510;54.486;9.046;2023-04-25T08:25:20;7.90;99.90
16838;DHT22;19510;54.486;9.046;2023-04-25T08:27:48;7.80;99.90
16838;DHT22;19510;54.486;9.046;2023-04-25T08:30:14;7.80;99.90
16838;DHT22;19510;54.486;9.046;2023-04-25T08:32:42;7.80;99.90
16838;DHT22;19510;54.486;9.046;2023-04-25T08:35:08;7.80;99.90
16838;DHT22;19510;54.486;9.046;2023-04-25T08:37:34;7.90;99.90
16838;DHT22;19510;54.486;9.046;2023-04-25T08:40:03;8.00;99.90
16838;DHT22;19510;54.486;9.046;2023-04-25T08:42:33;8.10;99.90
16838;DHT22;19510;54.486;9.046;2023-04-25T08:45:01;8.10;99.90
16838;DHT22;19510;54.486;9.046;2023-04-25T08:47:30;8.20;99.90
16838;DHT22;19510;54.486;9.046;2023-04-25T08:49:59;8.50;99.90
16838;DHT22;19510;54.486;9.046;2023-04-25T08:52:28;8.60;99.90
16838;DHT22;19510;54.486;9.046;2023-04-25T08:54:57;8.60;99.90
16838;DHT22;19510;54.486;9.046;2023-04-25T08:57:23;8.40;99.90
16838;DHT22;19510;54.486;9.046;2023-04-25T08:59:49;8.00;99.90
16838;DHT22;19510;54.486;9.046;2023-04-25T09:02:17;7.60;99.90
16838;DHT22;19510;54.486;9.046;2023-04-25T09:04:45;7.30;99.90
16838;DHT22;19510;54.486;9.046;2023-04-25T09:07:11;7.10;99.90
16838;DHT22;19510;54.486;9.046;2023-04-25T09:09:36;7.10;99.90
16838;DHT22;19510;54.486;9.046;2023-04-25T09:12:02;7.20;99.90
16838;DHT22;19510;54.486;9.046;2023-04-25T09:14:28;7.10;99.90
16838;DHT22;19510;54.486;9.046;2023-04-25T09:19:30;6.80;99.90
16838;DHT22;19510;54.486;9.046;2023-04-25T09:21:58;6.50;99.90
16838;DHT22;19510;54.486;9.046;2023-04-25T09:24:41;6.30;99.90
16838;DHT22;19510;54.486;9.046;2023-04-25T09:27:12;6.30;99.90
16838;DHT22;19510;54.486;9.046;2023-04-25T09:29:43;6.40;99.90
16838;DHT22;19510;54.486;9.046;2023-04-25T09:32:22;6.40;99.90
16838;DHT22;19510;54.486;9.046;2023-04-25T09:34:56;6.40;99.90
16838;DHT22;19510;54.486;9.046;2023-04-25T09:39:49;6.40;99.90
16838;DHT22;19510;54.486;9.046;2023-04-25T09:42:16;6.40;99.90
16838;DHT22;19510;54.486;9.046;2023-04-25T09:44:43;6.50;99.90
16838;DHT22;19510;54.486;9.046;2023-04-25T09:47:14;6.70;99.90
16838;DHT22;19510;54.486;9.046;2023-04-25T09:49:42;6.80;99.90
16838;DHT22;19510;54.486;9.046;2023-04-25T09:52:11;7.00;99.90
16838;DHT22;19510;54.486;9.046;2023-04-25T09:54:38;7.20;99.90
16838;DHT22;19510;54.486;9.046;2023-04-25T09:57:11;7.50;99.90
16838;DHT22;19510;54.486;9.046;2023-04-25T09:59:39;7.70;99.90
16838;DHT22;19510;54.486;9.046;2023-04-25T10:02:08;7.70;99.90
16838;DHT22;19510;54.486;9.046;2023-04-25T10:04:35;7.80;99.90
16838;DHT22;19510;54.486;9.046;2023-04-25T10:07:05;7.90;99.90
16838;DHT22;19510;54.486;9.046;2023-04-25T10:09:32;7.30;99.90
16838;DHT22;19510;54.486;9.046;2023-04-25T10:12:01;6.90;99.90
16838;DHT22;19510;54.486;9.046;2023-04-25T10:14:31;6.70;99.90
16838;DHT22;19510;54.486;9.046;2023-04-25T10:16:58;6.70;99.90
16838;DHT22;19510;54.486;9.046;2023-04-25T10:19:25;6.90;99.90
16838;DHT22;19510;54.486;9.046;2023-04-25T10:22:17;7.30;99.90
16838;DHT22;19510;54.486;9.046;2023-04-25T10:28:06;7.60;99.90
16838;DHT22;19510;54.486;9.046;2023-04-25T10:30:32;7.00;99.90
16838;DHT22;19510;54.486;9.046;2023-04-25T10:33:01;6.50;99.90
16838;DHT22;19510;54.486;9.046;2023-04-25T10:35:29;6.40;99.90
16838;DHT22;19510;54.486;9.046;2023-04-25T10:38:08;6.50;99.90
16838;DHT22;19510;54.486;9.046;2023-04-25T10:40:35;6.50;99.90
16838;DHT22;19510;54.486;9.046;2023-04-25T10:43:33;6.80;99.90
16838;DHT22;19510;54.486;9.046;2023-04-25T10:46:00;7.20;99.90
16838;DHT22;19510;54.486;9.046;2023-04-25T10:51:11;7.50;99.90
16838;DHT22;19510;54.486;9.046;2023-04-25T10:53:37;7.60;99.90
16838;DHT22;19510;54.486;9.046;2023-04-25T10:56:30;7.90;99.90
16838;DHT22;19510;54.486;9.046;2023-04-25T11:01:48;8.40;99.90
16838;DHT22;19510;54.486;9.046;2023-04-25T11:04:25;8.50;99.90
16838;DHT22;19510;54.486;9.046;2023-04-25T11:09:41;8.20;99.90
16838;DHT22;19510;54.486;9.046;2023-04-25T11:12:11;8.10;99.90
16838;DHT22;19510;54.486;9.046;2023-04-25T11:14:38;8.20;99.90
16838;DHT22;19510;54.486;9.046;2023-04-25T11:17:04;8.40;99.90
16838;DHT22;19510;54.486;9.046;2023-04-25T11:19:31;8.40;99.90
16838;DHT22;19510;54.486;9.046;2023-04-25T11:21:59;8.50;99.90
16838;DHT22;19510;54.486;9.046;2023-04-25T11:24:31;8.40;99.90
16838;DHT22;19510;54.486;9.046;2023-04-25T11:26:58;8.30;99.90
16838;DHT22;19510;54.486;9.046;2023-04-25T11:29:29;8.40;99.90
16838;DHT22;19510;54.486;9.046;2023-04-25T11:31:55;8.80;99.90
16838;DHT22;19510;54.486;9.046;2023-04-25T11:34:23;9.00;99.90
16838;DHT22;19510;54.486;9.046;2023-04-25T11:36:51;9.20;99.90
16838;DHT22;19510;54.486;9.046;2023-04-25T11:39:20;9.30;99.90
16838;DHT22;19510;54.486;9.046;2023-04-25T11:41:47;9.40;99.90
16838;DHT22;19510;54.486;9.046;2023-04-25T11:44:16;9.30;99.90
16838;DHT22;19510;54.486;9.046;2023-04-25T11:46:42;9.60;99.90
16838;DHT22;19510;54.486;9.046;2023-04-25T11:49:09;9.80;99.90
16838;DHT22;19510;54.486;9.046;2023-04-25T11:54:06;9.70;99.90
16838;DHT22;19510;54.486;9.046;2023-04-25T11:56:32;9.40;99.90
16838;DHT22;19510;54.486;9.046;2023-04-25T11:59:02;8.80;99.90
16838;DHT22;19510;54.486;9.046;2023-04-25T12:01:32;8.20;99.90
16838;DHT22;19510;54.486;9.046;2023-04-25T12:03:58;7.60;99.90
16838;DHT22;19510;54.486;9.046;2023-04-25T12:06:37;7.20;99.90
16838;DHT22;19510;54.486;9.046;2023-04-25T12:09:08;7.00;99.90
16838;DHT22;19510;54.486;9.046;2023-04-25T12:11:44;7.00;99.90
16838;DHT22;19510;54.486;9.046;2023-04-25T12:14:10;6.90;99.90
16838;DHT22;19510;54.486;9.046;2023-04-25T12:16:46;7.00;99.90
16838;DHT22;19510;54.486;9.046;2023-04-25T12:19:17;7.10;99.90
16838;DHT22;19510;54.486;9.046;2023-04-25T12:21:44;7.20;99.90
16838;DHT22;19510;54.486;9.046;2023-04-25T12:24:15;7.40;99.90
16838;DHT22;19510;54.486;9.046;2023-04-25T12:29:21;7.90;99.90
16838;DHT22;19510;54.486;9.046;2023-04-25T12:31:51;8.30;99.90
16838;DHT22;19510;54.486;9.046;2023-04-25T12:34:21;8.50;99.90
16838;DHT22;19510;54.486;9.046;2023-04-25T12:36:49;8.70;99.90
16838;DHT22;19510;54.486;9.046;2023-04-25T12:39:20;8.50;99.90
16838;DHT22;19510;54.486;9.046;2023-04-25T12:41:48;8.60;99.90
16838;DHT22;19510;54.486;9.046;2023-04-25T12:44:14;8.60;99.90
16838;DHT22;19510;54.486;9.046;2023-04-25T12:46:41;8.60;99.90
16838;DHT22;19510;54.486;9.046;2023-04-25T12:49:07;8.60;99.90
16838;DHT22;19510;54.486;9.046;2023-04-25T12:51:34;8.70;99.90
16838;DHT22;19510;54.486;9.046;2023-04-25T12:54:02;8.90;99.90
16838;DHT22;19510;54.486;9.046;2023-04-25T12:56:29;9.20;99.90
16838;DHT22;19510;54.486;9.046;2023-04-25T12:58:55;9.70;99.90
16838;DHT22;19510;54.486;9.046;2023-04-25T13:01:21;10.00;99.90
16838;DHT22;19510;54.486;9.046;2023-04-25T13:03:47;10.10;99.90
16838;DHT22;19510;54.486;9.046;2023-04-25T13:06:15;10.10;99.90
16838;DHT22;19510;54.486;9.046;2023-04-25T13:08:41;10.10;99.90
16838;DHT22;19510;54.486;9.046;2023-04-25T13:11:07;10.10;99.90
16838;DHT22;19510;54.486;9.046;2023-04-25T13:13:33;10.20;99.90
16838;DHT22;19510;54.486;9.046;2023-04-25T13:16:02;10.40;99.90
16838;DHT22;19510;54.486;9.046;2023-04-25T13:18:29;10.60;99.90
16838;DHT22;19510;54.486;9.046;2023-04-25T13:20:55;10.60;99.90
16838;DHT22;19510;54.486;9.046;2023-04-25T13:23:21;10.50;99.90
16838;DHT22;19510;54.486;9.046;2023-04-25T13:25:47;10.10;99.90
16838;DHT22;19510;54.486;9.046;2023-04-25T13:28:14;9.40;99.90
16838;DHT22;19510;54.486;9.046;2023-04-25T13:30:42;8.90;99.90
16838;DHT22;19510;54.486;9.046;2023-04-25T13:33:08;8.80;99.90
16838;DHT22;19510;54.486;9.046;2023-04-25T13:35:47;8.40;99.90
16838;DHT22;19510;54.486;9.046;2023-04-25T13:38:20;8.10;99.90
16838;DHT22;19510;54.486;9.046;2023-04-25T13:40:46;7.90;99.90
16838;DHT22;19510;54.486;9.046;2023-04-25T13:43:22;7.90;99.90
16838;DHT22;19510;54.486;9.046;2023-04-25T13:45:49;8.10;99.90
16838;DHT22;19510;54.486;9.046;2023-04-25T13:48:20;8.40;99.90
16838;DHT22;19510;54.486;9.046;2023-04-25T13:50:52;8.50;99.90
16838;DHT22;19510;54.486;9.046;2023-04-25T13:53:18;8.30;99.90
16838;DHT22;19510;54.486;9.046;2023-04-25T13:55:46;8.10;99.90
16838;DHT22;19510;54.486;9.046;2023-04-25T13:58:12;8.00;99.90
16838;DHT22;19510;54.486;9.046;2023-04-25T14:00:38;8.00;99.90
16838;DHT22;19510;54.486;9.046;2023-04-25T14:03:04;8.50;99.90
16838;DHT22;19510;54.486;9.046;2023-04-25T14:05:36;8.80;99.90
16838;DHT22;19510;54.486;9.046;2023-04-25T14:08:07;9.00;99.90
16838;DHT22;19510;54.486;9.046;2023-04-25T14:10:34;9.00;99.90
16838;DHT22;19510;54.486;9.046;2023-04-25T14:13:01;8.90;99.90
16838;DHT22;19510;54.486;9.046;2023-04-25T14:15:29;9.00;99.90
16838;DHT22;19510;54.486;9.046;2023-04-25T14:17:57;9.10;99.90
16838;DHT22;19510;54.486;9.046;2023-04-25T14:20:23;9.00;99.90
16838;DHT22;19510;54.486;9.046;2023-04-25T14:22:49;8.90;99.90
16838;DHT22;19510;54.486;9.046;2023-04-25T14:25:15;8.70;99.90
16838;DHT22;19510;54.486;9.046;2023-04-25T14:27:43;8.50;99.90
16838;DHT22;19510;54.486;9.046;2023-04-25T14:30:12;8.20;99.90
16838;DHT22;19510;54.486;9.046;2023-04-25T14:32:41;8.00;99.90
16838;DHT22;19510;54.486;9.046;2023-04-25T14:35:07;7.90;99.90
16838;DHT22;19510;54.486;9.046;2023-04-25T14:37:33;8.00;99.90
16838;DHT22;19510;54.486;9.046;2023-04-25T14:39:59;8.20;99.90
16838;DHT22;19510;54.486;9.046;2023-04-25T14:42:25;8.50;99.90
16838;DHT22;19510;54.486;9.046;2023-04-25T14:44:51;8.80;99.90
16838;DHT22;19510;54.486;9.046;2023-04-25T14:47:19;9.10;99.90
16838;DHT22;19510;54.486;9.046;2023-04-25T14:49:45;9.20;99.90
16838;DHT22;19510;54.486;9.046;2023-04-25T14:52:16;9.30;99.90
16838;DHT22;19510;54.486;9.046;2023-04-25T14:54:44;9.60;99.90
16838;DHT22;19510;54.486;9.046;2023-04-25T14:57:10;9.60;99.90
16838;DHT22;19510;54.486;9.046;2023-04-25T14:59:36;9.50;99.90
16838;DHT22;19510;54.486;9.046;2023-04-25T15:02:02;9.40;99.90
16838;DHT22;19510;54.486;9.046;2023-04-25T15:04:28;9.20;99.90
16838;DHT22;19510;54.486;9.046;2023-04-25T15:06:53;9.10;99.90
16838;DHT22;19510;54.486;9.046;2023-04-25T15:09:19;9.00;99.90
16838;DHT22;19510;54.486;9.046;2023-04-25T15:11:45;8.90;99.90
16838;DHT22;19510;54.486;9.046;2023-04-25T15:14:10;9.10;99.90
16838;DHT22;19510;54.486;9.046;2023-04-25T15:16:38;8.90;99.90
16838;DHT22;19510;54.486;9.046;2023-04-25T15:19:04;8.90;99.90
16838;DHT22;19510;54.486;9.046;2023-04-25T15:21:32;8.60;99.90
16838;DHT22;19510;54.486;9.046;2023-04-25T15:24:00;8.50;99.90
16838;DHT22;19510;54.486;9.046;2023-04-25T15:26:27;8.80;99.90
16838;DHT22;19510;54.486;9.046;2023-04-25T15:28:52;8.80;99.90
16838;DHT22;19510;54.486;9.046;2023-04-25T15:31:18;8.60;99.90
16838;DHT22;19510;54.486;9.046;2023-04-25T15:33:44;8.70;99.90
16838;DHT22;19510;54.486;9.046;2023-04-25T15:36:10;8.80;99.90
16838;DHT22;19510;54.486;9.046;2023-04-25T15:38:37;8.90;99.90
16838;DHT22;19510;54.486;9.046;2023-04-25T15:41:02;8.80;99.90
16838;DHT22;19510;54.486;9.046;2023-04-25T15:43:31;8.60;99.90
16838;DHT22;19510;54.486;9.046;2023-04-25T15:45:56;8.50;99.90
16838;DHT22;19510;54.486;9.046;2023-04-25T15:48:24;8.40;99.90
16838;DHT22;19510;54.486;9.046;2023-04-25T15:50:50;8.20;99.90
16838;DHT22;19510;54.486;9.046;2023-04-25T15:53:16;8.00;99.90
16838;DHT22;19510;54.486;9.046;2023-04-25T15:55:42;8.00;99.90
16838;DHT22;19510;54.486;9.046;2023-04-25T15:58:09;8.00;99.90
16838;DHT22;19510;54.486;9.046;2023-04-25T16:00:34;8.10;99.90
16838;DHT22;19510;54.486;9.046;2023-04-25T16:03:02;8.40;99.90
16838;DHT22;19510;54.486;9.046;2023-04-25T16:05:28;8.70;99.90
16838;DHT22;19510;54.486;9.046;2023-04-25T16:07:54;8.90;99.90
16838;DHT22;19510;54.486;9.046;2023-04-25T16:10:20;9.10;99.90
16838;DHT22;19510;54.486;9.046;2023-04-25T16:12:48;9.20;99.90
16838;DHT22;19510;54.486;9.046;2023-04-25T16:15:15;9.30;99.90
16838;DHT22;19510;54.486;9.046;2023-04-25T16:17:43;9.40;99.90
16838;DHT22;19510;54.486;9.046;2023-04-25T16:20:10;9.40;99.90
16838;DHT22;19510;54.486;9.046;2023-04-25T16:22:40;9.50;99.90
16838;DHT22;19510;54.486;9.046;2023-04-25T16:25:07;9.40;99.90
16838;DHT22;19510;54.486;9.046;2023-04-25T16:27:33;9.20;99.90
16838;DHT22;19510;54.486;9.046;2023-04-25T16:30:00;9.30;99.90
16838;DHT22;19510;54.486;9.046;2023-04-25T16:32:26;9.20;99.90
16838;DHT22;19510;54.486;9.046;2023-04-25T16:34:52;9.30;99.90
16838;DHT22;19510;54.486;9.046;2023-04-25T16:37:17;9.50;99.90
16838;DHT22;19510;54.486;9.046;2023-04-25T16:39:43;9.70;99.90
16838;DHT22;19510;54.486;9.046;2023-04-25T16:42:09;9.90;99.90
16838;DHT22;19510;54.486;9.046;2023-04-25T16:44:35;9.80;99.90
16838;DHT22;19510;54.486;9.046;2023-04-25T16:47:01;9.80;99.90
16838;DHT22;19510;54.486;9.046;2023-04-25T16:49:27;9.60;99.90
16838;DHT22;19510;54.486;9.046;2023-04-25T16:51:53;9.60;99.90
16838;DHT22;19510;54.486;9.046;2023-04-25T16:54:18;9.50;99.90
16838;DHT22;19510;54.486;9.046;2023-04-25T16:56:44;9.40;99.90
16838;DHT22;19510;54.486;9.046;2023-04-25T16:59:12;9.30;99.90
16838;DHT22;19510;54.486;9.046;2023-04-25T17:01:38;9.30;99.90
16838;DHT22;19510;54.486;9.046;2023-04-25T17:04:03;9.50;99.90
16838;DHT22;19510;54.486;9.046;2023-04-25T17:06:29;9.40;99.90
16838;DHT22;19510;54.486;9.046;2023-04-25T17:08:55;9.20;99.90
16838;DHT22;19510;54.486;9.046;2023-04-25T17:11:23;8.60;99.90
16838;DHT22;19510;54.486;9.046;2023-04-25T17:13:49;8.40;99.90
16838;DHT22;19510;54.486;9.046;2023-04-25T17:16:21;8.30;99.90
16838;DHT22;19510;54.486;9.046;2023-04-25T17:18:48;7.90;99.90
16838;DHT22;19510;54.486;9.046;2023-04-25T17:21:19;7.50;99.90
16838;DHT22;19510;54.486;9.046;2023-04-25T17:23:45;7.20;99.90
16838;DHT22;19510;54.486;9.046;2023-04-25T17:26:12;7.10;99.90
16838;DHT22;19510;54.486;9.046;2023-04-25T17:28:37;7.00;99.90
16838;DHT22;19510;54.486;9.046;2023-04-25T17:31:09;6.90;99.90
16838;DHT22;19510;54.486;9.046;2023-04-25T17:33:37;6.90;99.90
16838;DHT22;19510;54.486;9.046;2023-04-25T17:36:03;7.10;99.90
16838;DHT22;19510;54.486;9.046;2023-04-25T17:38:29;7.30;99.90
16838;DHT22;19510;54.486;9.046;2023-04-25T17:40:56;7.40;99.90
16838;DHT22;19510;54.486;9.046;2023-04-25T17:43:24;7.50;99.90
16838;DHT22;19510;54.486;9.046;2023-04-25T17:45:54;7.60;99.90
16838;DHT22;19510;54.486;9.046;2023-04-25T17:48:21;7.70;99.90
16838;DHT22;19510;54.486;9.046;2023-04-25T17:50:47;7.80;99.90
16838;DHT22;19510;54.486;9.046;2023-04-25T17:53:13;8.00;99.90
16838;DHT22;19510;54.486;9.046;2023-04-25T17:55:39;8.20;99.90
16838;DHT22;19510;54.486;9.046;2023-04-25T17:58:10;8.40;99.90
16838;DHT22;19510;54.486;9.046;2023-04-25T18:00:37;8.50;99.90
16838;DHT22;19510;54.486;9.046;2023-04-25T18:03:06;8.50;99.90
16838;DHT22;19510;54.486;9.046;2023-04-25T18:05:32;8.60;99.90
16838;DHT22;19510;54.486;9.046;2023-04-25T18:08:00;8.60;99.90
16838;DHT22;19510;54.486;9.046;2023-04-25T18:10:32;8.40;99.90
16838;DHT22;19510;54.486;9.046;2023-04-25T18:13:00;8.20;99.90
16838;DHT22;19510;54.486;9.046;2023-04-25T18:15:29;8.10;99.90
16838;DHT22;19510;54.486;9.046;2023-04-25T18:17:57;8.00;99.90
16838;DHT22;19510;54.486;9.046;2023-04-25T18:20:22;8.00;99.90
16838;DHT22;19510;54.486;9.046;2023-04-25T18:22:48;7.90;99.90
16838;DHT22;19510;54.486;9.046;2023-04-25T18:25:14;7.80;99.90
16838;DHT22;19510;54.486;9.046;2023-04-25T18:27:42;7.80;99.90
16838;DHT22;19510;54.486;9.046;2023-04-25T18:30:10;7.70;99.90
16838;DHT22;19510;54.486;9.046;2023-04-25T18:32:36;7.70;99.90
16838;DHT22;19510;54.486;9.046;2023-04-25T18:35:04;7.70;99.90
16838;DHT22;19510;54.486;9.046;2023-04-25T18:37:30;7.70;99.90
16838;DHT22;19510;54.486;9.046;2023-04-25T18:39:56;7.60;99.90
16838;DHT22;19510;54.486;9.046;2023-04-25T18:42:22;7.70;99.90
16838;DHT22;19510;54.486;9.046;2023-04-25T18:44:47;7.60;99.90
16838;DHT22;19510;54.486;9.046;2023-04-25T18:47:13;7.60;99.90
16838;DHT22;19510;54.486;9.046;2023-04-25T18:49:39;7.50;99.90
16838;DHT22;19510;54.486;9.046;2023-04-25T18:52:05;7.50;99.90
16838;DHT22;19510;54.486;9.046;2023-04-25T18:54:37;7.50;99.90
16838;DHT22;19510;54.486;9.046;2023-04-25T18:57:05;7.50;99.90
16838;DHT22;19510;54.486;9.046;2023-04-25T18:59:33;7.40;99.90
16838;DHT22;19510;54.486;9.046;2023-04-25T19:01:59;7.40;99.90
16838;DHT22;19510;54.486;9.046;2023-04-25T19:04:27;7.20;99.90
16838;DHT22;19510;54.486;9.046;2023-04-25T19:06:55;7.20;99.90
16838;DHT22;19510;54.486;9.046;2023-04-25T19:09:21;7.10;99.90
16838;DHT22;19510;54.486;9.046;2023-04-25T19:11:46;7.00;99.90
16838;DHT22;19510;54.486;9.046;2023-04-25T19:14:13;6.90;99.90
16838;DHT22;19510;54.486;9.046;2023-04-25T19:16:39;6.90;99.90
16838;DHT22;19510;54.486;9.046;2023-04-25T19:19:05;6.80;99.90
16838;DHT22;19510;54.486;9.046;2023-04-25T19:21:32;6.80;99.90
16838;DHT22;19510;54.486;9.046;2023-04-25T19:23:58;6.80;99.90
16838;DHT22;19510;54.486;9.046;2023-04-25T19:26:25;6.80;99.90
16838;DHT22;19510;54.486;9.046;2023-04-25T19:29:05;6.80;99.90
16838;DHT22;19510;54.486;9.046;2023-04-25T19:31:33;6.90;99.90
16838;DHT22;19510;54.486;9.046;2023-04-25T19:34:05;6.90;99.90
16838;DHT22;19510;54.486;9.046;2023-04-25T19:36:31;7.00;99.90
16838;DHT22;19510;54.486;9.046;2023-04-25T19:38:57;7.00;99.90
16838;DHT22;19510;54.486;9.046;2023-04-25T19:41:29;7.00;99.90
16838;DHT22;19510;54.486;9.046;2023-04-25T19:43:55;7.00;99.90
16838;DHT22;19510;54.486;9.046;2023-04-25T19:46:20;7.00;99.90
16838;DHT22;19510;54.486;9.046;2023-04-25T19:48:46;7.00;99.90
16838;DHT22;19510;54.486;9.046;2023-04-25T19:51:13;7.00;99.90
16838;DHT22;19510;54.486;9.046;2023-04-25T19:53:39;7.00;99.90
16838;DHT22;19510;54.486;9.046;2023-04-25T19:56:04;7.00;99.90
16838;DHT22;19510;54.486;9.046;2023-04-25T19:58:30;7.00;99.90
16838;DHT22;19510;54.486;9.046;2023-04-25T20:00:56;7.00;99.90
16838;DHT22;19510;54.486;9.046;2023-04-25T20:03:23;6.80;99.90
16838;DHT22;19510;54.486;9.046;2023-04-25T20:05:48;6.50;99.90
16838;DHT22;19510;54.486;9.046;2023-04-25T20:08:14;6.40;99.90
16838;DHT22;19510;54.486;9.046;2023-04-25T20:10:40;6.30;99.90
16838;DHT22;19510;54.486;9.046;2023-04-25T20:13:06;6.30;99.90
16838;DHT22;19510;54.486;9.046;2023-04-25T20:15:33;6.30;99.90
16838;DHT22;19510;54.486;9.046;2023-04-25T20:17:58;6.20;99.90
16838;DHT22;19510;54.486;9.046;2023-04-25T20:20:24;6.30;99.90
16838;DHT22;19510;54.486;9.046;2023-04-25T20:22:50;6.20;99.90
16838;DHT22;19510;54.486;9.046;2023-04-25T20:25:16;6.20;99.90
16838;DHT22;19510;54.486;9.046;2023-04-25T20:27:42;6.20;99.90
16838;DHT22;19510;54.486;9.046;2023-04-25T20:30:10;6.20;99.90
16838;DHT22;19510;54.486;9.046;2023-04-25T20:32:36;6.20;99.90
16838;DHT22;19510;54.486;9.046;2023-04-25T20:35:03;6.30;99.90
16838;DHT22;19510;54.486;9.046;2023-04-25T20:37:33;6.30;99.90
16838;DHT22;19510;54.486;9.046;2023-04-25T20:40:00;6.40;99.90
16838;DHT22;19510;54.486;9.046;2023-04-25T20:42:26;6.40;99.90
16838;DHT22;19510;54.486;9.046;2023-04-25T20:44:56;6.30;99.90
16838;DHT22;19510;54.486;9.046;2023-04-25T20:47:25;6.30;99.90
16838;DHT22;19510;54.486;9.046;2023-04-25T20:49:51;6.40;99.90
16838;DHT22;19510;54.486;9.046;2023-04-25T20:52:17;6.40;99.90
16838;DHT22;19510;54.486;9.046;2023-04-25T20:54:44;6.40;99.90
16838;DHT22;19510;54.486;9.046;2023-04-25T20:57:10;6.40;99.90
16838;DHT22;19510;54.486;9.046;2023-04-25T20:59:36;6.40;99.90
16838;DHT22;19510;54.486;9.046;2023-04-25T21:02:02;6.30;99.90
